Time;durP1;ratioP1;P1;durP2;ratioP2;P2;SDS_P1;SDS_P2;PMS_P1;PMS_P2;Temp;Humidity;BMP_temperature;BMP_pressure;BME280_temperature;BME280_humidity;BME280_pressure;Samples;Min_cycle;Max_cycle;Signal;HPM_P1;HPM_P2
2023/09/28 00:00:34;;;;;;;6.63;4.28;;;22.10;94.10;;;;;;4976793;28;20138;-77
2023/09/28 00:02:42;;;;;;;7.68;4.70;;;22.00;94.00;;;;;;4965907;28;20089;-77
2023/09/28 00:05:10;;;;;;;6.88;4.18;;;21.90;93.10;;;;;;4977526;28;20108;-77
2023/09/28 00:07:36;;;;;;;5.90;4.22;;;;;;;;;;4976067;28;20129;-78
2023/09/28 00:10:03;;;;;;;6.03;4.13;;;;;;;;;;4960737;28;20047;-77
2023/09/28 00:12:29;;;;;;;6.10;4.18;;;;;;;;;;4994294;28;20058;-77
2023/09/28 00:14:56;;;;;;;6.15;4.32;;;;;;;;;;4993908;28;20042;-78
2023/09/28 00:17:22;;;;;;;5.85;4.40;;;22.10;94.10;;;;;;4960959;28;20042;-78
2023/09/28 00:19:48;;;;;;;6.65;4.03;;;22.10;94.10;;;;;;4980594;28;20043;-76
2023/09/28 00:22:14;;;;;;;5.57;4.25;;;;;;;;;;4983310;28;20046;-77
2023/09/28 00:24:42;;;;;;;5.68;4.20;;;;;;;;;;4990059;28;20049;-66
2023/09/28 00:27:09;;;;;;;5.72;4.32;;;22.00;94.10;;;;;;5003388;28;20050;-77
2023/09/28 00:29:35;;;;;;;5.20;4.00;;;22.00;94.00;;;;;;4946811;28;20104;-79
2023/09/28 00:32:01;;;;;;;5.88;4.40;;;;;;;;;;4997088;28;20053;-78
2023/09/28 00:34:27;;;;;;;7.10;4.15;;;;;;;;;;4978029;28;20046;-75
2023/09/28 00:36:54;;;;;;;7.20;4.60;;;;;;;;;;4997748;28;20498;-77
2023/09/28 00:39:20;;;;;;;6.70;4.25;;;22.20;94.10;;;;;;4996606;28;20042;-78
2023/09/28 00:41:46;;;;;;;6.05;4.35;;;22.10;94.30;;;;;;4996240;28;20404;-78
2023/09/28 00:44:12;;;;;;;5.57;4.18;;;22.10;94.10;;;;;;5010440;28;20064;-77
2023/09/28 00:46:38;;;;;;;5.63;3.97;;;22.00;93.00;;;;;;5011979;28;20403;-78
2023/09/28 00:49:05;;;;;;;5.20;3.95;;;;;;;;;;4979042;28;20052;-78
2023/09/28 00:51:33;;;;;;;6.90;4.18;;;22.10;94.10;;;;;;4978318;28;20469;-77
2023/09/28 00:54:00;;;;;;;6.43;4.50;;;22.00;94.10;;;;;;5012641;28;20120;-75
2023/09/28 00:56:28;;;;;;;6.47;4.32;;;;;;;;;;4978187;28;20089;-66
2023/09/28 00:58:54;;;;;;;5.97;4.22;;;21.80;94.30;;;;;;4978084;28;20038;-67
2023/09/28 01:01:20;;;;;;;7.10;4.63;;;22.00;94.00;;;;;;4977213;28;20053;-66
2023/09/28 01:03:46;;;;;;;5.75;4.15;;;21.90;94.10;;;;;;4971600;28;20050;-67
2023/09/28 01:06:12;;;;;;;6.78;4.60;;;22.10;94.10;;;;;;4961235;28;20400;-67
2023/09/28 01:08:38;;;;;;;6.55;4.50;;;22.10;94.10;;;;;;5007362;28;20054;-67
2023/09/28 01:11:09;;;;;;;7.32;4.22;;;21.90;94.10;;;;;;5016510;28;20037;-77
2023/09/28 01:13:35;;;;;;;6.47;4.25;;;22.00;94.00;;;;;;5027145;28;20049;-67
2023/09/28 01:16:04;;;;;;;5.82;4.32;;;22.10;94.10;;;;;;4996648;28;20042;-77
2023/09/28 01:18:30;;;;;;;5.60;4.00;;;22.10;94.10;;;;;;5012919;28;20053;-66
2023/09/28 01:20:57;;;;;;;6.50;4.10;;;21.90;94.00;;;;;;4996416;28;20062;-66
2023/09/28 01:23:24;;;;;;;5.97;4.45;;;22.00;94.10;;;;;;5012941;28;20143;-66
2023/09/28 01:25:50;;;;;;;5.70;4.22;;;21.90;94.00;;;;;;5020500;28;20041;-66
2023/09/28 01:28:19;;;;;;;5.80;4.43;;;;;;;;;;5013535;28;20104;-75
2023/09/28 01:30:46;;;;;;;5.85;4.38;;;22.00;92.70;;;;;;4980202;28;20381;-76
2023/09/28 01:33:12;;;;;;;5.90;4.20;;;21.90;94.00;;;;;;4994096;28;20127;-75
2023/09/28 01:35:41;;;;;;;5.93;4.50;;;22.00;94.00;;;;;;4995187;28;20042;-76
2023/09/28 01:38:10;;;;;;;7.72;4.88;;;22.10;94.10;;;;;;4977068;28;20610;-76
2023/09/28 01:40:40;;;;;;;6.40;4.10;;;22.00;94.00;;;;;;4985383;28;20427;-77
2023/09/28 01:43:06;;;;;;;5.78;3.92;;;22.00;94.10;;;;;;5016481;28;20499;-72
2023/09/28 01:45:33;;;;;;;6.32;4.57;;;;;;;;;;4995860;28;20038;-77
2023/09/28 01:48:10;;;;;;;6.40;4.43;;;22.00;92.20;;;;;;5012806;28;20056;-75
2023/09/28 01:50:56;;;;;;;7.13;4.22;;;22.00;94.10;;;;;;4996030;28;20499;-77
2023/09/28 01:53:22;;;;;;;5.50;4.15;;;;;;;;;;5010992;28;20042;-74
2023/09/28 01:55:50;;;;;;;8.13;4.20;;;;;;;;;;4992634;28;20050;-66
2023/09/28 01:58:16;;;;;;;6.78;4.18;;;21.80;94.30;;;;;;4995318;28;20058;-75
2023/09/28 02:00:46;;;;;;;6.68;4.55;;;22.00;94.00;;;;;;5020071;28;20530;-73
2023/09/28 02:03:14;;;;;;;6.25;4.57;;;;;;;;;;4947047;28;20088;-66
2023/09/28 02:05:41;;;;;;;7.20;4.43;;;;;;;;;;5009896;28;20149;-76
2023/09/28 02:08:07;;;;;;;6.13;4.60;;;22.00;94.00;;;;;;4977820;28;20048;-77
2023/09/28 02:10:33;;;;;;;5.70;4.32;;;;;;;;;;4978400;28;20046;-66
2023/09/28 02:12:59;;;;;;;7.10;4.78;;;21.90;92.10;;;;;;5010894;28;20088;-77
2023/09/28 02:15:26;;;;;;;6.78;4.85;;;21.90;94.00;;;;;;4978869;28;20038;-78
2023/09/28 02:17:52;;;;;;;6.00;4.22;;;21.90;94.00;;;;;;4970247;28;20038;-75
2023/09/28 02:20:20;;;;;;;6.75;4.30;;;21.90;94.00;;;;;;4993705;28;20128;-77
2023/09/28 02:22:47;;;;;;;6.22;4.30;;;21.90;94.00;;;;;;4994439;28;20061;-76
2023/09/28 02:25:18;;;;;;;5.97;4.18;;;22.20;92.90;;;;;;4963328;28;20100;-78
2023/09/28 02:27:45;;;;;;;6.50;4.55;;;;;;;;;;4989921;28;20474;-77
2023/09/28 02:30:13;;;;;;;7.38;4.50;;;22.00;94.00;;;;;;4973428;28;20058;-77
2023/09/28 02:32:43;;;;;;;5.53;4.35;;;;;;;;;;4971695;28;20038;-74
2023/09/28 02:35:11;;;;;;;6.63;4.38;;;;;;;;;;4974242;28;20088;-75
2023/09/28 02:37:37;;;;;;;6.80;4.22;;;;;;;;;;4990739;28;20050;-73
2023/09/28 02:40:07;;;;;;;6.82;4.75;;;22.10;94.00;;;;;;4990429;28;20070;-78
2023/09/28 02:42:36;;;;;;;6.43;4.38;;;;;;;;;;5004143;28;20121;-77
2023/09/28 02:45:35;;;;;;;7.82;4.50;;;21.90;94.00;;;;;;4991606;28;20034;-77
2023/09/28 02:48:03;;;;;;;5.80;4.53;;;21.90;92.70;;;;;;4989503;28;20181;-72
2023/09/28 02:50:29;;;;;;;7.00;4.43;;;;;;;;;;4991761;28;20120;-75
2023/09/28 02:52:56;;;;;;;5.50;4.18;;;22.00;93.90;;;;;;4997173;28;20126;-76
2023/09/28 02:55:22;;;;;;;7.07;4.60;;;;;;;;;;4973382;28;20053;-76
2023/09/28 02:57:49;;;;;;;5.47;3.90;;;;;;;;;;4990334;28;20038;-76
2023/09/28 03:00:33;;;;;;;6.40;4.15;;;22.00;94.00;;;;;;4972743;28;20069;-75
2023/09/28 03:03:05;;;;;;;7.38;4.00;;;21.70;92.50;;;;;;4963412;28;20056;-76
2023/09/28 03:05:32;;;;;;;6.68;4.25;;;21.90;94.00;;;;;;4988549;28;20153;-75
2023/09/28 03:07:58;;;;;;;6.88;4.22;;;22.00;94.00;;;;;;4946068;28;20050;-75
2023/09/28 03:10:25;;;;;;;6.10;4.10;;;;;;;;;;5004628;28;20125;-76
2023/09/28 03:12:51;;;;;;;6.75;4.30;;;;;;;;;;4992947;28;20050;-73
2023/09/28 03:15:18;;;;;;;5.45;4.00;;;;;;;;;;4993807;28;20125;-76
2023/09/28 03:17:47;;;;;;;6.18;4.38;;;;;;;;;;4995533;28;20042;-76
2023/09/28 03:20:21;;;;;;;6.90;4.72;;;21.80;93.90;;;;;;4978771;28;20046;-76
2023/09/28 03:22:49;;;;;;;6.00;4.35;;;21.80;92.80;;;;;;4993391;28;20046;-76
2023/09/28 03:25:19;;;;;;;5.38;3.97;;;;;;;;;;4976327;28;20038;-76
2023/09/28 03:27:45;;;;;;;6.05;4.10;;;;;;;;;;4988258;28;20066;-65
2023/09/28 03:30:12;;;;;;;6.68;3.88;;;22.10;94.00;;;;;;4996318;28;20110;-65
2023/09/28 03:32:39;;;;;;;7.18;4.45;;;22.00;94.00;;;;;;4994933;28;20511;-65
2023/09/28 03:35:09;;;;;;;6.50;4.40;;;21.90;93.30;;;;;;4978089;28;20054;-65
2023/09/28 03:37:35;;;;;;;5.60;4.18;;;;;;;;;;4978575;28;20499;-76
2023/09/28 03:40:01;;;;;;;6.57;4.32;;;21.90;94.00;;;;;;4993110;28;20045;-65
2023/09/28 03:42:27;;;;;;;7.63;3.72;;;21.90;94.00;;;;;;4977827;28;20050;-76
2023/09/28 03:44:54;;;;;;;6.15;4.22;;;22.10;94.10;;;;;;4995116;28;20105;-75
2023/09/28 03:47:19;;;;;;;6.43;3.97;;;21.90;94.00;;;;;;4990224;28;20050;-75
2023/09/28 03:49:46;;;;;;;6.75;4.38;;;;;;;;;;4995750;28;20068;-74
2023/09/28 03:52:12;;;;;;;6.93;3.90;;;21.90;94.00;;;;;;4995423;28;20149;-76
2023/09/28 03:54:38;;;;;;;8.55;3.97;;;22.00;94.00;;;;;;4993278;28;20523;-75
2023/09/28 03:57:04;;;;;;;6.28;4.43;;;22.00;94.00;;;;;;4976496;28;20045;-77
2023/09/28 03:59:29;;;;;;;5.55;3.65;;;21.80;94.10;;;;;;4977618;28;20046;-76
2023/09/28 04:01:55;;;;;;;7.07;4.05;;;21.80;94.10;;;;;;4992108;28;20347;-76
2023/09/28 04:04:24;;;;;;;6.32;4.05;;;21.80;94.00;;;;;;4991823;28;20081;-75
2023/09/28 04:06:53;;;;;;;6.88;4.18;;;21.90;92.90;;;;;;4992665;28;20132;-75
2023/09/28 04:09:19;;;;;;;7.00;4.10;;;;;;;;;;4993405;28;20168;-73
2023/09/28 04:11:45;;;;;;;7.38;4.32;;;;;;;;;;4994707;28;20122;-75
2023/09/28 04:14:12;;;;;;;6.35;4.25;;;;;;;;;;4994267;28;20054;-76
2023/09/28 04:16:39;;;;;;;6.72;3.92;;;21.80;94.00;;;;;;4995354;28;20389;-76
2023/09/28 04:19:05;;;;;;;6.82;4.47;;;;;;;;;;4992174;28;20046;-65
2023/09/28 04:21:31;;;;;;;6.22;4.20;;;22.00;93.10;;;;;;4990035;28;20339;-75
2023/09/28 04:23:58;;;;;;;6.63;4.25;;;21.90;94.00;;;;;;4976625;28;20070;-76
2023/09/28 04:26:24;;;;;;;5.50;3.60;;;;;;;;;;4998372;28;20523;-76
2023/09/28 04:28:52;;;;;;;7.22;4.28;;;21.80;92.80;;;;;;5009686;28;20105;-74
2023/09/28 04:31:21;;;;;;;6.55;4.18;;;21.70;92.90;;;;;;4960903;28;20045;-73
2023/09/28 04:33:47;;;;;;;8.18;4.75;;;;;;;;;;4995868;28;20455;-76
2023/09/28 04:36:13;;;;;;;5.93;4.07;;;21.90;94.20;;;;;;4980597;28;20453;-75
2023/09/28 04:38:40;;;;;;;6.63;4.60;;;21.90;94.10;;;;;;4962969;28;20037;-76
2023/09/28 04:41:06;;;;;;;6.22;4.43;;;;;;;;;;4995168;28;20038;-76
2023/09/28 04:43:36;;;;;;;6.72;4.30;;;21.90;94.10;;;;;;4995837;28;20042;-74
2023/09/28 04:46:06;;;;;;;6.97;4.25;;;21.90;94.00;;;;;;4994889;28;20496;-74
2023/09/28 04:48:33;;;;;;;6.30;4.28;;;;;;;;;;5010770;28;20054;-74
2023/09/28 04:50:59;;;;;;;6.40;4.03;;;;;;;;;;5016331;28;20037;-73
2023/09/28 04:53:28;;;;;;;5.70;4.35;;;22.00;93.00;;;;;;5012823;28;20468;-73
2023/09/28 04:55:55;;;;;;;5.88;4.07;;;;;;;;;;4992907;28;20037;-74
2023/09/28 04:58:24;;;;;;;7.57;4.30;;;21.70;92.90;;;;;;4994533;28;20050;-74
2023/09/28 05:00:50;;;;;;;7.82;4.28;;;21.80;94.10;;;;;;4963227;28;20038;-73
2023/09/28 05:03:17;;;;;;;7.97;4.80;;;;;;;;;;4994212;28;20136;-73
2023/09/28 05:05:43;;;;;;;6.38;4.53;;;;;;;;;;4979562;28;20041;-73
2023/09/28 05:08:12;;;;;;;6.28;4.50;;;;;;;;;;5026288;28;20055;-65
2023/09/28 05:10:38;;;;;;;7.03;4.10;;;21.80;94.10;;;;;;5033929;28;20052;-65
2023/09/28 05:13:04;;;;;;;6.55;4.32;;;21.60;94.00;;;;;;4996715;28;20041;-65
2023/09/28 05:15:29;;;;;;;6.28;4.40;;;21.70;94.20;;;;;;4996486;28;20068;-65
2023/09/28 05:18:02;;;;;;;7.70;4.47;;;21.90;94.10;;;;;;5012175;28;20046;-70
2023/09/28 05:20:32;;;;;;;8.02;4.80;;;21.80;94.00;;;;;;4984636;28;20113;-65
2023/09/28 05:23:03;;;;;;;7.57;4.57;;;21.80;94.10;;;;;;5014341;28;20053;-71
2023/09/28 05:25:30;;;;;;;7.05;4.03;;;;;;;;;;4996025;28;20091;-74
2023/09/28 05:27:56;;;;;;;5.97;4.13;;;;;;;;;;5033421;28;20503;-74
2023/09/28 05:30:23;;;;;;;7.25;4.50;;;;;;;;;;4995541;28;20415;-75
2023/09/28 05:32:49;;;;;;;6.70;4.53;;;;;;;;;;5011690;28;20050;-75
2023/09/28 05:35:16;;;;;;;6.15;4.40;;;21.70;94.10;;;;;;4976258;28;20038;-75
2023/09/28 05:37:42;;;;;;;6.93;4.57;;;;;;;;;;4978906;28;20377;-74
2023/09/28 05:40:11;;;;;;;5.95;4.40;;;21.80;94.20;;;;;;4978259;28;20096;-75
2023/09/28 05:42:38;;;;;;;9.02;4.55;;;;;;;;;;5009204;28;20037;-73
2023/09/28 05:45:05;;;;;;;6.40;4.10;;;21.80;94.10;;;;;;4992940;28;20496;-76
2023/09/28 05:47:33;;;;;;;6.88;4.40;;;21.80;94.10;;;;;;4995055;28;20455;-73
2023/09/28 05:50:00;;;;;;;6.38;4.38;;;;;;;;;;4979921;28;20415;-75
2023/09/28 05:52:26;;;;;;;7.05;4.68;;;;;;;;;;4994985;28;20546;-76
2023/09/28 05:54:53;;;;;;;6.68;4.32;;;;;;;;;;5012993;28;20065;-72
2023/09/28 05:57:22;;;;;;;6.20;3.83;;;;;;;;;;4993260;28;20760;-65
2023/09/28 05:59:48;;;;;;;6.03;4.45;;;;;;;;;;5011449;28;20085;-76
2023/09/28 06:02:15;;;;;;;7.40;4.72;;;;;;;;;;4978599;28;20045;-65
2023/09/28 06:04:41;;;;;;;7.43;4.30;;;;;;;;;;4976499;28;20159;-76
2023/09/28 06:07:10;;;;;;;5.68;4.03;;;;;;;;;;4977217;28;20045;-75
2023/09/28 06:09:40;;;;;;;7.10;4.30;;;21.90;94.10;;;;;;4976829;28;20050;-65
2023/09/28 06:12:06;;;;;;;6.35;4.40;;;;;;;;;;4962303;28;20049;-75
2023/09/28 06:14:33;;;;;;;6.03;4.25;;;21.80;94.00;;;;;;4977156;28;20038;-65
2023/09/28 06:17:00;;;;;;;5.32;3.78;;;22.00;94.10;;;;;;4995234;28;20049;-74
2023/09/28 06:19:27;;;;;;;6.38;4.22;;;22.10;94.10;;;;;;4995673;28;20123;-74
2023/09/28 06:21:56;;;;;;;6.80;4.07;;;21.90;94.00;;;;;;4978387;28;20045;-75
2023/09/28 06:24:22;;;;;;;7.30;4.00;;;;;;;;;;4979611;28;20056;-76
2023/09/28 06:26:53;;;;;;;5.72;4.32;;;;;;;;;;4993021;28;20446;-76
2023/09/28 06:29:19;;;;;;;7.90;4.15;;;;;;;;;;4978285;28;20054;-72
2023/09/28 06:31:46;;;;;;;6.32;4.20;;;22.10;93.90;;;;;;4994997;28;20235;-72
2023/09/28 06:34:12;;;;;;;6.28;3.85;;;22.30;93.90;;;;;;4971853;28;20046;-71
2023/09/28 06:36:38;;;;;;;7.45;4.25;;;;;;;;;;4978112;28;20053;-72
2023/09/28 06:39:04;;;;;;;8.13;4.22;;;22.40;93.90;;;;;;4991841;28;20562;-71
2023/09/28 06:41:31;;;;;;;7.63;3.90;;;;;;;;;;4993157;28;20480;-69
2023/09/28 06:43:57;;;;;;;6.90;4.22;;;22.50;93.80;;;;;;5008824;28;20523;-66
2023/09/28 06:46:23;;;;;;;6.10;3.80;;;22.50;93.80;;;;;;4991524;28;20042;-72
2023/09/28 06:48:51;;;;;;;6.47;3.90;;;22.40;93.70;;;;;;5014577;28;20042;-72
2023/09/28 06:51:19;;;;;;;8.68;4.13;;;22.50;93.60;;;;;;5006533;28;20049;-73
2023/09/28 06:53:45;;;;;;;6.82;3.88;;;22.70;93.70;;;;;;4962072;28;20150;-73
2023/09/28 06:56:12;;;;;;;8.77;4.07;;;22.80;93.90;;;;;;4977273;28;20199;-74
2023/09/28 06:58:38;;;;;;;6.60;4.28;;;;;;;;;;4979109;28;20056;-72
2023/09/28 07:01:05;;;;;;;6.18;4.05;;;;;;;;;;5012454;28;20037;-71
2023/09/28 07:03:31;;;;;;;8.10;3.97;;;;;;;;;;5011140;28;20064;-72
2023/09/28 07:05:57;;;;;;;7.38;3.90;;;;;;;;;;5012695;28;20134;-72
2023/09/28 07:08:24;;;;;;;6.85;3.75;;;22.70;93.40;;;;;;5032043;28;20411;-71
2023/09/28 07:10:50;;;;;;;7.55;3.90;;;22.80;93.40;;;;;;5032390;28;20112;-70
2023/09/28 07:13:18;;;;;;;7.10;3.60;;;22.90;93.40;;;;;;4969933;28;20409;-71
2023/09/28 07:15:44;;;;;;;6.05;3.70;;;;;;;;;;4986176;28;20404;-71
2023/09/28 07:18:10;;;;;;;7.63;4.50;;;23.00;93.30;;;;;;4993052;28;20050;-69
2023/09/28 07:20:38;;;;;;;6.93;3.50;;;23.10;93.20;;;;;;4994957;28;20045;-65
2023/09/28 07:23:04;;;;;;;9.38;4.03;;;23.10;92.20;;;;;;5015031;28;20573;-65
2023/09/28 07:25:30;;;;;;;7.22;4.20;;;23.10;92.10;;;;;;5005512;28;20100;-65
2023/09/28 07:27:56;;;;;;;7.38;4.10;;;23.20;93.00;;;;;;5010284;28;20532;-73
2023/09/28 07:30:23;;;;;;;7.25;4.05;;;;;;;;;;5011782;28;20064;-73
2023/09/28 07:32:50;;;;;;;9.05;4.00;;;23.30;91.30;;;;;;5009356;28;20065;-71
2023/09/28 07:35:16;;;;;;;8.63;4.07;;;23.40;92.80;;;;;;4993055;28;20136;-70
2023/09/28 07:37:43;;;;;;;10.68;4.05;;;23.40;92.10;;;;;;4992470;28;20103;-73
2023/09/28 07:40:12;;;;;;;7.15;3.80;;;23.70;92.20;;;;;;5009793;28;20057;-72
2023/09/28 07:42:40;;;;;;;9.23;4.05;;;23.70;91.40;;;;;;5000320;28;20039;-70
2023/09/28 07:45:06;;;;;;;7.40;3.72;;;23.70;92.50;;;;;;4966795;28;20054;-72
2023/09/28 07:47:33;;;;;;;9.18;4.18;;;23.70;92.40;;;;;;4954637;28;20078;-72
2023/09/28 07:50:00;;;;;;;10.18;4.05;;;23.80;92.50;;;;;;4981320;28;20057;-73
2023/09/28 07:52:26;;;;;;;8.02;3.83;;;24.20;92.40;;;;;;4994484;28;20049;-73
2023/09/28 07:54:52;;;;;;;9.63;4.25;;;24.00;91.30;;;;;;4994767;28;20042;-72
2023/09/28 07:57:18;;;;;;;8.60;3.95;;;23.90;92.20;;;;;;4977138;28;20061;-70
2023/09/28 07:59:45;;;;;;;7.90;3.60;;;24.00;91.20;;;;;;4981586;28;20045;-73
2023/09/28 08:02:11;;;;;;;8.20;4.00;;;;;;;;;;5013997;28;20042;-64
2023/09/28 08:04:38;;;;;;;7.40;4.03;;;24.10;90.20;;;;;;4995876;28;20045;-72
2023/09/28 08:07:05;;;;;;;8.32;3.63;;;;;;;;;;4982199;28;20057;-73
2023/09/28 08:09:32;;;;;;;10.52;3.90;;;24.20;92.10;;;;;;4980227;28;20132;-72
2023/09/28 08:11:59;;;;;;;9.25;4.25;;;;;;;;;;4997321;28;20427;-72
2023/09/28 08:14:27;;;;;;;7.72;3.90;;;24.00;89.80;;;;;;5000010;28;20443;-70
2023/09/28 08:16:55;;;;;;;10.43;3.80;;;23.00;90.30;;;;;;4997938;28;20050;-72
2023/09/28 08:19:21;;;;;;;9.38;4.15;;;24.30;91.70;;;;;;4996823;28;20117;-72
2023/09/28 08:21:47;;;;;;;9.95;3.92;;;24.30;90.90;;;;;;4981511;28;20479;-72
2023/09/28 08:24:16;;;;;;;11.10;3.88;;;;;;;;;;4997395;28;20073;-73
2023/09/28 08:26:43;;;;;;;11.10;4.22;;;24.50;89.50;;;;;;4993810;28;20116;-72
2023/09/28 08:29:09;;;;;;;10.70;4.35;;;;;;;;;;4948040;28;20053;-72
2023/09/28 08:31:35;;;;;;;9.30;4.00;;;24.50;89.10;;;;;;4971273;28;20037;-72
2023/09/28 08:34:03;;;;;;;11.35;4.57;;;;;;;;;;4996794;28;20041;-64
2023/09/28 08:36:32;;;;;;;7.93;3.50;;;24.60;91.60;;;;;;4996427;28;20433;-64
2023/09/28 08:39:01;;;;;;;10.73;4.05;;;24.60;91.30;;;;;;4959833;28;20073;-71
2023/09/28 08:41:36;;;;;;;7.93;3.97;;;24.80;90.30;;;;;;4977683;28;20352;-74
2023/09/28 08:44:05;;;;;;;11.18;4.57;;;24.80;90.40;;;;;;5014239;28;20062;-72
2023/09/28 08:46:38;;;;;;;8.70;4.05;;;24.60;91.10;;;;;;5013013;28;20082;-73
2023/09/28 08:49:05;;;;;;;11.35;4.70;;;24.70;89.20;;;;;;4989312;28;20120;-65
2023/09/28 08:51:31;;;;;;;11.43;4.15;;;24.70;91.10;;;;;;5009447;28;20061;-65
2023/09/28 08:54:04;;;;;;;11.02;4.15;;;24.50;90.10;;;;;;4989012;28;20064;-73
2023/09/28 08:56:39;;;;;;;10.90;4.30;;;24.60;91.00;;;;;;5011720;28;20037;-65
2023/09/28 08:59:05;;;;;;;11.75;4.53;;;24.40;90.00;;;;;;4961703;28;20436;-73
2023/09/28 09:01:34;;;;;;;9.52;3.60;;;24.90;89.80;;;;;;4961505;28;20137;-72
2023/09/28 09:04:00;;;;;;;10.55;3.78;;;24.80;90.00;;;;;;4995878;28;20502;-74
2023/09/28 09:06:31;;;;;;;8.55;3.80;;;24.30;91.10;;;;;;5029384;28;20053;-73
2023/09/28 09:09:03;;;;;;;9.63;4.05;;;24.50;89.90;;;;;;5016168;28;20453;-74
2023/09/28 09:11:31;;;;;;;8.70;3.90;;;24.60;89.80;;;;;;5016418;28;20068;-72
2023/09/28 09:13:57;;;;;;;9.32;3.60;;;24.70;89.80;;;;;;4982283;28;20128;-73
2023/09/28 09:16:24;;;;;;;11.18;4.05;;;24.40;89.50;;;;;;4980523;28;20050;-71
2023/09/28 09:18:52;;;;;;;9.00;3.58;;;24.70;89.90;;;;;;4979933;28;20052;-73
2023/09/28 09:21:24;;;;;;;12.02;3.92;;;24.30;89.80;;;;;;4996213;28;20057;-69
2023/09/28 09:24:10;;;;;;;10.48;3.83;;;24.40;89.90;;;;;;4983632;28;20046;-73
2023/09/28 09:26:58;;;;;;;10.98;4.45;;;24.50;89.90;;;;;;4941520;28;20058;-71
2023/09/28 09:29:27;;;;;;;11.15;4.15;;;22.00;88.40;;;;;;4960018;28;20531;-80
2023/09/28 09:31:53;;;;;;;17.45;4.32;;;;;;;;;;4993637;28;20054;-81
2023/09/28 09:34:20;;;;;;;11.35;4.03;;;24.10;90.80;;;;;;4991668;28;20054;-75
2023/09/28 09:36:57;;;;;;;14.57;5.00;;;24.30;90.90;;;;;;4988690;28;20438;-74
2023/09/28 09:39:30;;;;;;;16.98;5.22;;;24.10;90.00;;;;;;4954005;28;20536;-76
2023/09/28 09:41:58;;;;;;;15.40;5.07;;;;;;;;;;4969287;28;20038;-81
2023/09/28 09:44:27;;;;;;;17.13;4.85;;;24.00;90.40;;;;;;4990545;28;20054;-77
2023/09/28 09:46:54;;;;;;;18.58;5.15;;;24.10;90.60;;;;;;4992939;28;20480;-80
2023/09/28 09:49:23;;;;;;;15.02;5.25;;;23.90;90.50;;;;;;4967179;28;20054;-66
2023/09/28 09:51:49;;;;;;;15.48;5.15;;;24.10;90.60;;;;;;4980874;28;20487;-66
2023/09/28 09:54:16;;;;;;;17.40;5.25;;;23.90;88.90;;;;;;4973018;28;20161;-75
2023/09/28 09:56:49;;;;;;;14.07;4.53;;;23.20;88.60;;;;;;4951208;28;20046;-74
2023/09/28 09:59:16;;;;;;;15.63;5.20;;;23.90;90.80;;;;;;4993138;28;20141;-73
2023/09/28 10:01:55;;;;;;;14.68;4.57;;;23.90;90.50;;;;;;4989160;28;20061;-74
2023/09/28 10:04:23;;;;;;;15.45;4.40;;;24.00;90.60;;;;;;4992250;28;20100;-73
2023/09/28 10:06:56;;;;;;;13.13;4.60;;;23.90;90.70;;;;;;4976145;28;20078;-74
2023/09/28 10:09:22;;;;;;;;;;;24.10;89.30;;;;;;4993086;28;20050;-74
2023/09/28 10:11:49;;;;;;;14.93;4.40;;;23.80;90.60;;;;;;4993202;28;19968;-73
2023/09/28 10:14:16;;;;;;;13.82;4.00;;;22.30;88.40;;;;;;5006040;28;20486;-73
2023/09/28 10:16:42;;;;;;;16.70;4.57;;;;;;;;;;4987230;28;20050;-73
2023/09/28 10:19:09;;;;;;;12.48;4.63;;;;;;;;;;4972602;28;20050;-73
2023/09/28 10:21:37;;;;;;;11.25;4.18;;;23.80;90.60;;;;;;4988539;28;20088;-74
2023/09/28 10:24:20;;;;;;;14.90;4.40;;;23.80;90.60;;;;;;4956952;28;20077;-70
2023/09/28 10:26:51;;;;;;;14.40;4.50;;;23.80;90.60;;;;;;4953437;28;20058;-74
2023/09/28 10:29:28;;;;;;;16.05;4.40;;;23.90;90.80;;;;;;4988872;28;20443;-74
2023/09/28 10:31:54;;;;;;;14.43;4.78;;;23.80;90.50;;;;;;4956719;28;20069;-74
2023/09/28 10:34:20;;;;;;;13.80;4.38;;;23.80;90.50;;;;;;4970871;28;20084;-72
2023/09/28 10:37:13;;;;;;;16.73;5.25;;;23.80;90.50;;;;;;4957136;28;20042;-70
2023/09/28 10:39:42;;;;;;;;;;;23.70;88.60;;;;;;4971584;28;20053;-72
2023/09/28 10:42:12;;;;;;;12.77;4.32;;;23.90;90.60;;;;;;4985028;28;19928;-73
2023/09/28 10:45:00;;;;;;;15.20;4.38;;;23.70;88.50;;;;;;4955876;28;20121;-74
2023/09/28 10:47:27;;;;;;;16.52;4.60;;;23.60;90.50;;;;;;4958870;28;20356;-74
2023/09/28 10:49:59;;;;;;;15.88;4.90;;;23.70;90.50;;;;;;4972912;28;20073;-72
2023/09/28 10:52:26;;;;;;;14.43;3.83;;;;;;;;;;4987679;28;20050;-65
2023/09/28 10:54:52;;;;;;;13.88;4.28;;;23.80;90.60;;;;;;4990535;28;20091;-74
2023/09/28 10:57:29;;;;;;;13.57;3.75;;;23.80;90.60;;;;;;4957073;28;20054;-74
2023/09/28 11:00:00;;;;;;;15.38;4.28;;;23.90;90.70;;;;;;4972521;28;20038;-74
2023/09/28 11:02:26;;;;;;;15.40;4.57;;;23.80;90.60;;;;;;4972170;28;20051;-74
2023/09/28 11:04:55;;;;;;;14.15;4.88;;;24.00;88.70;;;;;;4990753;28;20061;-74
2023/09/28 11:07:25;;;;;;;11.02;4.25;;;23.70;90.60;;;;;;4955876;28;20054;-72
2023/09/28 11:09:51;;;;;;;14.20;4.00;;;23.70;90.60;;;;;;4990037;28;20039;-74
2023/09/28 11:12:18;;;;;;;16.33;4.65;;;;;;;;;;4988349;28;20049;-73
2023/09/28 11:14:44;;;;;;;11.38;4.00;;;23.90;91.00;;;;;;4990037;28;20407;-74
2023/09/28 11:17:10;;;;;;;12.43;4.10;;;;;;;;;;4989488;28;20378;-74
2023/09/28 11:19:36;;;;;;;14.45;4.50;;;23.90;90.70;;;;;;4989497;28;20050;-74
2023/09/28 11:22:02;;;;;;;12.35;3.88;;;23.90;90.60;;;;;;4989650;28;20054;-74
2023/09/28 11:24:28;;;;;;;13.07;4.05;;;;;;;;;;4989077;28;20361;-73
2023/09/28 11:26:56;;;;;;;11.02;3.95;;;;;;;;;;4995845;28;20479;-74
2023/09/28 11:29:25;;;;;;;15.20;4.07;;;23.90;90.60;;;;;;5004118;28;20056;-70
2023/09/28 11:31:53;;;;;;;12.30;3.95;;;;;;;;;;4997140;28;20049;-69
2023/09/28 11:34:33;;;;;;;13.27;4.22;;;23.90;90.60;;;;;;4988538;28;20049;-73
2023/09/28 11:36:59;;;;;;;14.15;3.70;;;23.70;90.50;;;;;;4981965;28;20111;-72
2023/09/28 11:39:26;;;;;;;16.92;4.30;;;24.10;90.60;;;;;;4977725;28;20108;-75
2023/09/28 11:41:56;;;;;;;14.68;3.90;;;23.90;90.50;;;;;;5010318;28;20061;-74
2023/09/28 11:44:24;;;;;;;12.43;4.10;;;24.10;90.50;;;;;;5008653;28;20034;-65
2023/09/28 11:46:50;;;;;;;12.80;3.88;;;23.90;90.50;;;;;;5012919;28;20060;-74
2023/09/28 11:49:16;;;;;;;11.70;4.28;;;23.80;88.80;;;;;;5012606;28;20189;-74
2023/09/28 11:51:44;;;;;;;12.40;3.70;;;24.00;90.50;;;;;;5011938;28;20077;-74
2023/09/28 11:54:12;;;;;;;13.15;4.03;;;23.70;90.50;;;;;;5012461;28;20042;-75
2023/09/28 11:56:39;;;;;;;14.60;4.18;;;23.90;90.60;;;;;;5013852;28;20048;-75
2023/09/28 11:59:09;;;;;;;12.93;3.95;;;23.90;90.70;;;;;;5013240;28;20572;-75
2023/09/28 12:01:39;;;;;;;11.68;3.53;;;;;;;;;;5008600;28;20431;-67
2023/09/28 12:04:05;;;;;;;10.73;3.60;;;23.80;90.50;;;;;;5010413;28;20399;-65
2023/09/28 12:06:31;;;;;;;12.65;4.43;;;23.80;90.60;;;;;;5012808;28;20041;-74
2023/09/28 12:08:57;;;;;;;10.18;3.70;;;24.00;90.60;;;;;;4992138;28;20048;-73
2023/09/28 12:11:23;;;;;;;10.57;3.78;;;23.90;91.00;;;;;;5011446;28;20530;-72
2023/09/28 12:13:49;;;;;;;11.23;3.88;;;23.70;90.50;;;;;;5014981;28;20037;-72
2023/09/28 12:16:15;;;;;;;11.68;3.92;;;24.00;89.70;;;;;;5011850;28;20049;-72
2023/09/28 12:18:41;;;;;;;14.02;4.20;;;23.60;89.20;;;;;;5008518;28;20137;-73
2023/09/28 12:21:07;;;;;;;12.77;3.70;;;23.90;90.70;;;;;;5013082;28;20220;-74
2023/09/28 12:23:35;;;;;;;15.18;4.15;;;;;;;;;;5011996;28;20077;-74
2023/09/28 12:26:01;;;;;;;12.05;3.70;;;23.80;90.70;;;;;;5012264;28;20456;-73
2023/09/28 12:28:28;;;;;;;10.88;3.58;;;23.80;90.60;;;;;;4983409;28;20057;-73
2023/09/28 12:30:56;;;;;;;12.27;4.05;;;23.80;90.60;;;;;;4996319;28;20499;-73
2023/09/28 12:33:22;;;;;;;13.23;4.40;;;23.80;90.70;;;;;;4963184;28;20073;-73
2023/09/28 12:35:48;;;;;;;12.38;4.15;;;23.80;90.60;;;;;;4961315;28;20487;-72
2023/09/28 12:38:14;;;;;;;12.05;3.88;;;23.70;90.60;;;;;;5006987;28;20187;-73
2023/09/28 12:40:40;;;;;;;10.82;3.75;;;23.80;90.70;;;;;;4984654;28;20058;-72
2023/09/28 12:43:09;;;;;;;12.43;3.72;;;23.70;90.60;;;;;;4984678;28;20049;-72
2023/09/28 12:45:39;;;;;;;12.00;3.50;;;23.90;90.60;;;;;;5006755;28;20049;-71
2023/09/28 12:48:06;;;;;;;10.32;3.50;;;23.90;90.60;;;;;;5009632;28;20050;-71
2023/09/28 12:50:32;;;;;;;9.23;3.35;;;23.70;88.60;;;;;;4993311;28;20062;-72
2023/09/28 12:53:00;;;;;;;11.80;4.40;;;23.70;90.60;;;;;;4972794;28;20062;-72
2023/09/28 12:55:27;;;;;;;11.68;3.80;;;23.90;90.70;;;;;;4946193;28;20103;-72
2023/09/28 12:57:54;;;;;;;13.30;4.05;;;;;;;;;;4966091;28;20053;-72
2023/09/28 13:00:24;;;;;;;10.95;3.83;;;23.70;90.60;;;;;;4961225;28;20037;-72
2023/09/28 13:02:51;;;;;;;12.02;3.97;;;23.80;90.60;;;;;;4978885;28;20041;-72
2023/09/28 13:05:21;;;;;;;10.85;3.83;;;23.90;88.70;;;;;;4992309;28;20048;-73
2023/09/28 13:07:50;;;;;;;11.35;3.97;;;23.80;90.60;;;;;;4948564;28;20034;-73
2023/09/28 13:10:27;;;;;;;12.38;3.72;;;23.90;90.60;;;;;;4993777;28;20124;-70
2023/09/28 13:12:53;;;;;;;11.15;3.90;;;23.90;90.60;;;;;;4969590;28;20037;-69
2023/09/28 13:15:22;;;;;;;12.60;4.07;;;23.80;90.60;;;;;;4977018;28;20053;-72